sensor_id;sensor_type;location;lat;lon;timestamp;pressure;altitude;pressure_sealevel;temperature;humidity
21100;BME280;10708;50.824;4.408;2023-01-26T00:03:07;101569.94;;;0.28;100.00
21100;BME280;10708;50.824;4.408;2023-01-26T00:08:11;101564.81;;;0.32;100.00
21100;BME280;10708;50.824;4.408;2023-01-26T00:13:13;101556.19;;;0.32;100.00
21100;BME280;10708;50.824;4.408;2023-01-26T00:18:16;101544.97;;;0.33;100.00
21100;BME280;10708;50.824;4.408;2023-01-26T00:23:19;101540.66;;;0.33;100.00
21100;BME280;10708;50.824;4.408;2023-01-26T00:28:22;101526.88;;;0.34;100.00
21100;BME280;10708;50.824;4.408;2023-01-26T00:33:24;101521.72;;;0.36;100.00
21100;BME280;10708;50.824;4.408;2023-01-26T00:38:27;101516.56;;;0.38;100.00
21100;BME280;10708;50.824;4.408;2023-01-26T00:43:30;101507.09;;;0.38;100.00
21100;BME280;10708;50.824;4.408;2023-01-26T00:48:32;101502.75;;;0.37;100.00
21100;BME280;10708;50.824;4.408;2023-01-26T00:53:35;101500.16;;;0.37;100.00
21100;BME280;10708;50.824;4.408;2023-01-26T00:58:38;101493.25;;;0.38;100.00
21100;BME280;10708;50.824;4.408;2023-01-26T01:03:40;101488.06;;;0.38;100.00
21100;BME280;10708;50.824;4.408;2023-01-26T01:08:44;101488.97;;;0.40;100.00
21100;BME280;10708;50.824;4.408;2023-01-26T01:13:46;101482.06;;;0.40;100.00
21100;BME280;10708;50.824;4.408;2023-01-26T01:18:51;101477.81;;;0.44;100.00
21100;BME280;10708;50.824;4.408;2023-01-26T01:23:55;101475.19;;;0.42;100.00
21100;BME280;10708;50.824;4.408;2023-01-26T01:28:58;101476.06;;;0.43;100.00
21100;BME280;10708;50.824;4.408;2023-01-26T01:34:00;101479.50;;;0.42;100.00
21100;BME280;10708;50.824;4.408;2023-01-26T01:39:04;101473.47;;;0.43;100.00
21100;BME280;10708;50.824;4.408;2023-01-26T01:44:18;101472.63;;;0.44;100.00
21100;BME280;10708;50.824;4.408;2023-01-26T01:49:23;101474.44;;;0.48;100.00
21100;BME280;10708;50.824;4.408;2023-01-26T01:54:31;101467.56;;;0.48;100.00
21100;BME280;10708;50.824;4.408;2023-01-26T01:59:36;101453.81;;;0.54;100.00
21100;BME280;10708;50.824;4.408;2023-01-26T02:04:38;101457.31;;;0.56;100.00
21100;BME280;10708;50.824;4.408;2023-01-26T02:09:42;101449.56;;;0.56;100.00
21100;BME280;10708;50.824;4.408;2023-01-26T02:15:12;101441.84;;;0.59;100.00
21100;BME280;10708;50.824;4.408;2023-01-26T02:20:19;101435.81;;;0.61;100.00
21100;BME280;10708;50.824;4.408;2023-01-26T02:25:33;101434.97;;;0.62;100.00
21100;BME280;10708;50.824;4.408;2023-01-26T02:30:39;101430.63;;;0.60;100.00
21100;BME280;10708;50.824;4.408;2023-01-26T02:35:41;101421.09;;;0.59;100.00
21100;BME280;10708;50.824;4.408;2023-01-26T02:40:48;101414.22;;;0.62;100.00
21100;BME280;10708;50.824;4.408;2023-01-26T02:45:55;101412.59;;;0.67;100.00
21100;BME280;10708;50.824;4.408;2023-01-26T02:50:58;101432.47;;;0.67;100.00
21100;BME280;10708;50.824;4.408;2023-01-26T02:56:00;101436.59;;;0.56;100.00
21100;BME280;10708;50.824;4.408;2023-01-26T03:01:05;101435.66;;;0.52;100.00
21100;BME280;10708;50.824;4.408;2023-01-26T03:06:08;101437.53;;;0.61;100.00
21100;BME280;10708;50.824;4.408;2023-01-26T03:11:11;101440.25;;;0.67;100.00
21100;BME280;10708;50.824;4.408;2023-01-26T03:16:14;101449.63;;;0.60;100.00
21100;BME280;10708;50.824;4.408;2023-01-26T03:21:18;101453.84;;;0.55;100.00
21100;BME280;10708;50.824;4.408;2023-01-26T03:26:38;101443.69;;;0.66;100.00
21100;BME280;10708;50.824;4.408;2023-01-26T03:31:59;101442.97;;;0.74;100.00
21100;BME280;10708;50.824;4.408;2023-01-26T03:37:01;101448.94;;;0.69;100.00
21100;BME280;10708;50.824;4.408;2023-01-26T03:42:04;101447.38;;;0.80;100.00
21100;BME280;10708;50.824;4.408;2023-01-26T03:47:25;101435.34;;;0.82;100.00
21100;BME280;10708;50.824;4.408;2023-01-26T03:52:45;101430.22;;;0.85;100.00
21100;BME280;10708;50.824;4.408;2023-01-26T03:58:04;101429.38;;;0.86;100.00
21100;BME280;10708;50.824;4.408;2023-01-26T04:03:09;101423.38;;;0.89;100.00
21100;BME280;10708;50.824;4.408;2023-01-26T04:08:29;101424.19;;;0.86;100.00
21100;BME280;10708;50.824;4.408;2023-01-26T04:13:31;101419.06;;;0.89;100.00
21100;BME280;10708;50.824;4.408;2023-01-26T04:18:53;101412.16;;;0.90;100.00
21100;BME280;10708;50.824;4.408;2023-01-26T04:24:13;101422.47;;;0.87;100.00
21100;BME280;10708;50.824;4.408;2023-01-26T04:29:15;101413.00;;;0.89;100.00
21100;BME280;10708;50.824;4.408;2023-01-26T04:34:19;101414.75;;;0.91;100.00
21100;BME280;10708;50.824;4.408;2023-01-26T04:39:21;101406.09;;;0.89;100.00
21100;BME280;10708;50.824;4.408;2023-01-26T04:44:24;101400.94;;;0.94;100.00
21100;BME280;10708;50.824;4.408;2023-01-26T04:49:27;101407.84;;;0.92;100.00
21100;BME280;10708;50.824;4.408;2023-01-26T04:54:30;101400.06;;;0.92;100.00
21100;BME280;10708;50.824;4.408;2023-01-26T04:59:32;101400.84;;;0.86;100.00
21100;BME280;10708;50.824;4.408;2023-01-26T05:04:35;101398.31;;;0.91;100.00
21100;BME280;10708;50.824;4.408;2023-01-26T05:09:38;101403.50;;;0.89;100.00
21100;BME280;10708;50.824;4.408;2023-01-26T05:14:40;101394.00;;;0.93;100.00
21100;BME280;10708;50.824;4.408;2023-01-26T05:19:44;101394.06;;;0.96;100.00
21100;BME280;10708;50.824;4.408;2023-01-26T05:24:46;101395.81;;;0.97;100.00
21100;BME280;10708;50.824;4.408;2023-01-26T05:29:49;101395.72;;;0.91;100.00
21100;BME280;10708;50.824;4.408;2023-01-26T05:34:53;101394.00;;;0.90;100.00
21100;BME280;10708;50.824;4.408;2023-01-26T05:39:55;101400.94;;;0.92;100.00
21100;BME280;10708;50.824;4.408;2023-01-26T05:44:57;101405.28;;;0.93;100.00
21100;BME280;10708;50.824;4.408;2023-01-26T05:50:01;101404.19;;;0.81;100.00
21100;BME280;10708;50.824;4.408;2023-01-26T05:55:05;101405.22;;;0.90;100.00
21100;BME280;10708;50.824;4.408;2023-01-26T06:00:09;101402.66;;;0.92;100.00
21100;BME280;10708;50.824;4.408;2023-01-26T06:05:14;101402.69;;;0.95;100.00
21100;BME280;10708;50.824;4.408;2023-01-26T06:10:16;101402.75;;;0.96;100.00
21100;BME280;10708;50.824;4.408;2023-01-26T06:15:18;101408.72;;;0.94;100.00
21100;BME280;10708;50.824;4.408;2023-01-26T06:20:22;101409.59;;;0.94;100.00
21100;BME280;10708;50.824;4.408;2023-01-26T06:25:24;101421.53;;;0.83;100.00
21100;BME280;10708;50.824;4.408;2023-01-26T06:30:27;101427.84;;;0.97;100.00
21100;BME280;10708;50.824;4.408;2023-01-26T06:35:32;101428.72;;;0.99;100.00
21100;BME280;10708;50.824;4.408;2023-01-26T06:40:35;101428.63;;;0.95;100.00
21100;BME280;10708;50.824;4.408;2023-01-26T06:45:38;101434.03;;;1.07;100.00
21100;BME280;10708;50.824;4.408;2023-01-26T06:50:43;101436.69;;;1.11;100.00
21100;BME280;10708;50.824;4.408;2023-01-26T06:55:46;101450.28;;;0.95;100.00
21100;BME280;10708;50.824;4.408;2023-01-26T07:00:49;101441.84;;;1.10;100.00
21100;BME280;10708;50.824;4.408;2023-01-26T07:05:53;101446.22;;;1.13;100.00
21100;BME280;10708;50.824;4.408;2023-01-26T07:10:55;101450.47;;;1.06;100.00
21100;BME280;10708;50.824;4.408;2023-01-26T07:15:59;101443.59;;;1.09;100.00
21100;BME280;10708;50.824;4.408;2023-01-26T07:21:05;101448.91;;;1.17;100.00
21100;BME280;10708;50.824;4.408;2023-01-26T07:26:08;101448.03;;;1.17;100.00
21100;BME280;10708;50.824;4.408;2023-01-26T07:31:11;101454.22;;;1.25;100.00
21100;BME280;10708;50.824;4.408;2023-01-26T07:36:15;101453.19;;;1.15;100.00
21100;BME280;10708;50.824;4.408;2023-01-26T07:41:17;101460.19;;;1.19;100.00
21100;BME280;10708;50.824;4.408;2023-01-26T07:46:20;101468.84;;;1.20;100.00
21100;BME280;10708;50.824;4.408;2023-01-26T07:51:24;101469.69;;;1.20;100.00
21100;BME280;10708;50.824;4.408;2023-01-26T07:56:27;101471.50;;;1.24;100.00
21100;BME280;10708;50.824;4.408;2023-01-26T08:01:29;101475.91;;;1.28;100.00
21100;BME280;10708;50.824;4.408;2023-01-26T08:06:33;101485.47;;;1.32;100.00
21100;BME280;10708;50.824;4.408;2023-01-26T08:11:35;101493.41;;;1.41;100.00
21100;BME280;10708;50.824;4.408;2023-01-26T08:16:38;101491.66;;;1.40;100.00
21100;BME280;10708;50.824;4.408;2023-01-26T08:21:42;101489.19;;;1.46;100.00
21100;BME280;10708;50.824;4.408;2023-01-26T08:26:44;101502.25;;;1.53;100.00
21100;BME280;10708;50.824;4.408;2023-01-26T08:31:47;101502.22;;;1.50;100.00
21100;BME280;10708;50.824;4.408;2023-01-26T08:36:50;101509.41;;;1.66;100.00
21100;BME280;10708;50.824;4.408;2023-01-26T08:41:53;101505.84;;;1.61;100.00
21100;BME280;10708;50.824;4.408;2023-01-26T08:46:55;101516.38;;;1.68;100.00
21100;BME280;10708;50.824;4.408;2023-01-26T08:51:59;101518.16;;;1.72;100.00
21100;BME280;10708;50.824;4.408;2023-01-26T08:57:03;101517.41;;;1.81;100.00
21100;BME280;10708;50.824;4.408;2023-01-26T09:02:05;101525.34;;;1.90;100.00
21100;BME280;10708;50.824;4.408;2023-01-26T09:07:09;101518.44;;;1.92;100.00
21100;BME280;10708;50.824;4.408;2023-01-26T09:12:11;101518.63;;;2.04;100.00
21100;BME280;10708;50.824;4.408;2023-01-26T09:17:13;101525.50;;;1.99;100.00
21100;BME280;10708;50.824;4.408;2023-01-26T09:22:17;101533.47;;;2.13;100.00
21100;BME280;10708;50.824;4.408;2023-01-26T09:27:19;101539.59;;;2.16;100.00
21100;BME280;10708;50.824;4.408;2023-01-26T09:32:22;101538.72;;;2.16;100.00
21100;BME280;10708;50.824;4.408;2023-01-26T09:37:25;101534.47;;;2.22;100.00
21100;BME280;10708;50.824;4.408;2023-01-26T09:42:38;101535.28;;;2.17;100.00
21100;BME280;10708;50.824;4.408;2023-01-26T09:47:56;101525.91;;;2.28;100.00
21100;BME280;10708;50.824;4.408;2023-01-26T09:53:06;101533.72;;;2.31;100.00
21100;BME280;10708;50.824;4.408;2023-01-26T09:58:14;101539.88;;;2.36;100.00
21100;BME280;10708;50.824;4.408;2023-01-26T10:03:24;101537.22;;;2.35;100.00
21100;BME280;10708;50.824;4.408;2023-01-26T10:08:31;101546.09;;;2.49;100.00
21100;BME280;10708;50.824;4.408;2023-01-26T10:13:35;101544.47;;;2.60;100.00
21100;BME280;10708;50.824;4.408;2023-01-26T10:18:44;101540.25;;;2.70;100.00
21100;BME280;10708;50.824;4.408;2023-01-26T10:23:53;101548.94;;;2.67;100.00
21100;BME280;10708;50.824;4.408;2023-01-26T10:28:55;101545.56;;;2.76;100.00
21100;BME280;10708;50.824;4.408;2023-01-26T10:34:00;101550.06;;;2.89;100.00
21100;BME280;10708;50.824;4.408;2023-01-26T10:39:10;101551.81;;;2.93;100.00
21100;BME280;10708;50.824;4.408;2023-01-26T10:44:22;101543.97;;;2.91;100.00
21100;BME280;10708;50.824;4.408;2023-01-26T10:49:26;101548.34;;;2.94;100.00
21100;BME280;10708;50.824;4.408;2023-01-26T10:54:30;101548.34;;;2.92;100.00
21100;BME280;10708;50.824;4.408;2023-01-26T10:59:38;101549.22;;;2.93;100.00
21100;BME280;10708;50.824;4.408;2023-01-26T11:05:00;101552.88;;;3.12;100.00
21100;BME280;10708;50.824;4.408;2023-01-26T11:10:23;101539.84;;;3.07;100.00
21100;BME280;10708;50.824;4.408;2023-01-26T11:15:26;101539.06;;;3.16;100.00
21100;BME280;10708;50.824;4.408;2023-01-26T11:20:40;101539.06;;;3.16;100.00
21100;BME280;10708;50.824;4.408;2023-01-26T11:25:57;101535.56;;;3.15;100.00
21100;BME280;10708;50.824;4.408;2023-01-26T11:31:15;101540.88;;;3.24;100.00
21100;BME280;10708;50.824;4.408;2023-01-26T11:36:30;101541.75;;;3.26;100.00
21100;BME280;10708;50.824;4.408;2023-01-26T11:41:45;101548.00;;;3.44;100.00
21100;BME280;10708;50.824;4.408;2023-01-26T11:47:03;101541.91;;;3.43;100.00
21100;BME280;10708;50.824;4.408;2023-01-26T11:52:12;101544.50;;;3.43;100.00
21100;BME280;10708;50.824;4.408;2023-01-26T11:57:29;101536.88;;;3.64;100.00
21100;BME280;10708;50.824;4.408;2023-01-26T12:02:35;101536.91;;;3.70;100.00
21100;BME280;10708;50.824;4.408;2023-01-26T12:07:45;101512.66;;;3.78;100.00
21100;BME280;10708;50.824;4.408;2023-01-26T12:13:00;101512.72;;;3.85;100.00
21100;BME280;10708;50.824;4.408;2023-01-26T12:18:13;101519.66;;;3.83;100.00
21100;BME280;10708;50.824;4.408;2023-01-26T12:23:25;101513.66;;;3.95;100.00
21100;BME280;10708;50.824;4.408;2023-01-26T12:28:33;101511.09;;;4.04;100.00
21100;BME280;10708;50.824;4.408;2023-01-26T12:33:38;101504.22;;;4.17;100.00
21100;BME280;10708;50.824;4.408;2023-01-26T12:38:54;101499.88;;;4.22;100.00
21100;BME280;10708;50.824;4.408;2023-01-26T12:44:09;101494.75;;;4.37;100.00
21100;BME280;10708;50.824;4.408;2023-01-26T12:49:23;101496.53;;;4.52;100.00
21100;BME280;10708;50.824;4.408;2023-01-26T12:54:33;101494.00;;;4.68;100.00
21100;BME280;10708;50.824;4.408;2023-01-26T12:59:42;101485.34;;;4.88;100.00
21100;BME280;10708;50.824;4.408;2023-01-26T13:04:46;101481.88;;;5.01;100.00
21100;BME280;10708;50.824;4.408;2023-01-26T13:10:18;101474.09;;;5.14;100.00
21100;BME280;10708;50.824;4.408;2023-01-26T13:15:24;101468.88;;;5.28;100.00
21100;BME280;10708;50.824;4.408;2023-01-26T13:20:45;101460.16;;;5.58;100.00
21100;BME280;10708;50.824;4.408;2023-01-26T13:31:32;101468.81;;;5.93;100.00
21100;BME280;10708;50.824;4.408;2023-01-26T13:36:36;101469.66;;;6.00;100.00
21100;BME280;10708;50.824;4.408;2023-01-26T13:41:44;101474.03;;;6.04;100.00
21100;BME280;10708;50.824;4.408;2023-01-26T13:46:53;101474.91;;;6.08;100.00
21100;BME280;10708;50.824;4.408;2023-01-26T13:51:57;101479.19;;;6.19;100.00
21100;BME280;10708;50.824;4.408;2023-01-26T13:57:02;101480.09;;;6.15;100.00
21100;BME280;10708;50.824;4.408;2023-01-26T14:02:20;101477.44;;;6.27;100.00
21100;BME280;10708;50.824;4.408;2023-01-26T14:07:25;101466.13;;;6.19;100.00
21100;BME280;10708;50.824;4.408;2023-01-26T14:12:32;101472.19;;;6.29;100.00
21100;BME280;10708;50.824;4.408;2023-01-26T14:17:46;101474.88;;;6.12;100.00
21100;BME280;10708;50.824;4.408;2023-01-26T14:23:02;101469.59;;;6.26;100.00
21100;BME280;10708;50.824;4.408;2023-01-26T14:28:05;101473.09;;;6.20;100.00
21100;BME280;10708;50.824;4.408;2023-01-26T14:33:13;101470.47;;;6.22;100.00
21100;BME280;10708;50.824;4.408;2023-01-26T14:38:16;101474.88;;;6.18;100.00
21100;BME280;10708;50.824;4.408;2023-01-26T14:43:20;101474.88;;;6.14;100.00
21100;BME280;10708;50.824;4.408;2023-01-26T14:48:27;101472.22;;;6.27;100.00
21100;BME280;10708;50.824;4.408;2023-01-26T14:53:32;101470.47;;;6.23;100.00
21100;BME280;10708;50.824;4.408;2023-01-26T14:58:35;101479.19;;;6.22;100.00
21100;BME280;10708;50.824;4.408;2023-01-26T15:03:39;101484.44;;;6.27;100.00
21100;BME280;10708;50.824;4.408;2023-01-26T15:08:52;101497.50;;;6.28;100.00
21100;BME280;10708;50.824;4.408;2023-01-26T15:13:55;101500.13;;;6.19;100.00
21100;BME280;10708;50.824;4.408;2023-01-26T15:19:00;101496.63;;;6.20;100.00
21100;BME280;10708;50.824;4.408;2023-01-26T15:24:05;101498.41;;;6.18;100.00
21100;BME280;10708;50.824;4.408;2023-01-26T15:29:19;101488.81;;;6.14;100.00
21100;BME280;10708;50.824;4.408;2023-01-26T15:34:33;101495.75;;;6.23;100.00
21100;BME280;10708;50.824;4.408;2023-01-26T15:39:36;101498.38;;;6.20;100.00
21100;BME280;10708;50.824;4.408;2023-01-26T15:44:39;101488.78;;;6.20;100.00
21100;BME280;10708;50.824;4.408;2023-01-26T15:49:44;101478.34;;;6.16;100.00
21100;BME280;10708;50.824;4.408;2023-01-26T15:54:47;101486.19;;;6.17;100.00
21100;BME280;10708;50.824;4.408;2023-01-26T15:59:51;101488.81;;;6.16;100.00
21100;BME280;10708;50.824;4.408;2023-01-26T16:04:55;101484.47;;;6.10;100.00
21100;BME280;10708;50.824;4.408;2023-01-26T16:09:57;101486.19;;;6.16;100.00
21100;BME280;10708;50.824;4.408;2023-01-26T16:15:00;101493.19;;;6.14;100.00
21100;BME280;10708;50.824;4.408;2023-01-26T16:20:05;101497.53;;;6.15;100.00
21100;BME280;10708;50.824;4.408;2023-01-26T16:25:19;101509.75;;;6.17;100.00
21100;BME280;10708;50.824;4.408;2023-01-26T16:30:23;101505.38;;;6.15;100.00
21100;BME280;10708;50.824;4.408;2023-01-26T16:35:28;101502.78;;;6.09;100.00
21100;BME280;10708;50.824;4.408;2023-01-26T16:40:30;101501.03;;;6.12;100.00
21100;BME280;10708;50.824;4.408;2023-01-26T16:45:32;101503.63;;;6.14;100.00
21100;BME280;10708;50.824;4.408;2023-01-26T16:50:36;101504.50;;;6.10;100.00
21100;BME280;10708;50.824;4.408;2023-01-26T16:55:39;101515.84;;;6.10;100.00
21100;BME280;10708;50.824;4.408;2023-01-26T17:00:41;101513.22;;;6.13;100.00
21100;BME280;10708;50.824;4.408;2023-01-26T17:05:45;101508.03;;;6.09;100.00
21100;BME280;10708;50.824;4.408;2023-01-26T17:10:47;101515.84;;;6.10;100.00
21100;BME280;10708;50.824;4.408;2023-01-26T17:15:50;101510.63;;;6.04;100.00
21100;BME280;10708;50.824;4.408;2023-01-26T17:21:00;101518.50;;;6.09;100.00
21100;BME280;10708;50.824;4.408;2023-01-26T17:26:03;101519.34;;;6.12;100.00
21100;BME280;10708;50.824;4.408;2023-01-26T17:31:06;101519.31;;;6.11;100.00
21100;BME280;10708;50.824;4.408;2023-01-26T17:36:13;101528.91;;;6.10;100.00
21100;BME280;10708;50.824;4.408;2023-01-26T17:41:16;101531.56;;;6.09;100.00
21100;BME280;10708;50.824;4.408;2023-01-26T17:46:20;101528.94;;;6.06;100.00
21100;BME280;10708;50.824;4.408;2023-01-26T17:51:23;101532.44;;;5.97;100.00
21100;BME280;10708;50.824;4.408;2023-01-26T17:56:26;101538.53;;;5.87;100.00
21100;BME280;10708;50.824;4.408;2023-01-26T18:01:28;101539.41;;;5.83;100.00
21100;BME280;10708;50.824;4.408;2023-01-26T18:06:32;101541.13;;;5.81;100.00
21100;BME280;10708;50.824;4.408;2023-01-26T18:11:35;101548.97;;;5.79;100.00
21100;BME280;10708;50.824;4.408;2023-01-26T18:16:37;101548.13;;;5.77;100.00
21100;BME280;10708;50.824;4.408;2023-01-26T18:21:41;101541.13;;;5.79;100.00
21100;BME280;10708;50.824;4.408;2023-01-26T18:26:44;101537.66;;;5.82;100.00
21100;BME280;10708;50.824;4.408;2023-01-26T18:31:46;101529.81;;;5.83;100.00
21100;BME280;10708;50.824;4.408;2023-01-26T18:36:50;101527.22;;;5.77;100.00
21100;BME280;10708;50.824;4.408;2023-01-26T18:41:52;101525.44;;;5.81;100.00
21100;BME280;10708;50.824;4.408;2023-01-26T18:46:55;101521.97;;;5.80;100.00
21100;BME280;10708;50.824;4.408;2023-01-26T18:52:02;101532.44;;;5.77;100.00
21100;BME280;10708;50.824;4.408;2023-01-26T18:57:05;101522.81;;;5.79;100.00
21100;BME280;10708;50.824;4.408;2023-01-26T19:02:09;101519.38;;;5.79;100.00
21100;BME280;10708;50.824;4.408;2023-01-26T19:07:12;101515.00;;;5.84;100.00
21100;BME280;10708;50.824;4.408;2023-01-26T19:12:15;101514.13;;;5.83;100.00
21100;BME280;10708;50.824;4.408;2023-01-26T19:17:17;101525.44;;;5.79;100.00
21100;BME280;10708;50.824;4.408;2023-01-26T19:22:21;101522.00;;;5.79;100.00
21100;BME280;10708;50.824;4.408;2023-01-26T19:27:24;101513.25;;;5.80;100.00
21100;BME280;10708;50.824;4.408;2023-01-26T19:32:26;101508.91;;;5.74;100.00
21100;BME280;10708;50.824;4.408;2023-01-26T19:37:30;101510.66;;;5.78;100.00
21100;BME280;10708;50.824;4.408;2023-01-26T19:42:32;101518.50;;;5.74;100.00
21100;BME280;10708;50.824;4.408;2023-01-26T19:47:34;101516.75;;;5.73;100.00
21100;BME280;10708;50.824;4.408;2023-01-26T19:52:38;101527.19;;;5.73;100.00
21100;BME280;10708;50.824;4.408;2023-01-26T19:57:40;101520.22;;;5.70;100.00
21100;BME280;10708;50.824;4.408;2023-01-26T20:02:43;101535.03;;;5.70;100.00
21100;BME280;10708;50.824;4.408;2023-01-26T20:07:47;101521.13;;;5.66;100.00
21100;BME280;10708;50.824;4.408;2023-01-26T20:12:49;101529.81;;;5.70;100.00
21100;BME280;10708;50.824;4.408;2023-01-26T20:17:52;101531.56;;;5.60;100.00
21100;BME280;10708;50.824;4.408;2023-01-26T20:22:57;101539.41;;;5.68;100.00
21100;BME280;10708;50.824;4.408;2023-01-26T20:27:59;101528.97;;;5.66;100.00
21100;BME280;10708;50.824;4.408;2023-01-26T20:33:02;101528.09;;;5.58;100.00
21100;BME280;10708;50.824;4.408;2023-01-26T20:38:06;101528.97;;;5.54;100.00
21100;BME280;10708;50.824;4.408;2023-01-26T20:43:09;101522.00;;;5.56;100.00
21100;BME280;10708;50.824;4.408;2023-01-26T20:48:11;101528.06;;;5.60;100.00
21100;BME280;10708;50.824;4.408;2023-01-26T20:53:15;101516.75;;;5.59;100.00
21100;BME280;10708;50.824;4.408;2023-01-26T20:58:18;101524.59;;;5.51;100.00
21100;BME280;10708;50.824;4.408;2023-01-26T21:03:20;101519.34;;;5.50;100.00
21100;BME280;10708;50.824;4.408;2023-01-26T21:08:24;101527.19;;;5.50;100.00
21100;BME280;10708;50.824;4.408;2023-01-26T21:13:27;101525.47;;;5.50;100.00
21100;BME280;10708;50.824;4.408;2023-01-26T21:18:29;101522.00;;;5.45;100.00
21100;BME280;10708;50.824;4.408;2023-01-26T21:23:34;101511.53;;;5.51;100.00
21100;BME280;10708;50.824;4.408;2023-01-26T21:28:37;101505.44;;;5.48;100.00
21100;BME280;10708;50.824;4.408;2023-01-26T21:33:41;101507.19;;;5.49;100.00
21100;BME280;10708;50.824;4.408;2023-01-26T21:38:46;101500.19;;;5.52;100.00
21100;BME280;10708;50.824;4.408;2023-01-26T21:43:53;101493.25;;;5.44;100.00
21100;BME280;10708;50.824;4.408;2023-01-26T21:48:56;101492.34;;;5.49;100.00
21100;BME280;10708;50.824;4.408;2023-01-26T21:54:00;101493.25;;;5.42;100.00
21100;BME280;10708;50.824;4.408;2023-01-26T21:59:05;101490.63;;;5.42;100.00
21100;BME280;10708;50.824;4.408;2023-01-26T22:04:09;101486.25;;;5.41;100.00
21100;BME280;10708;50.824;4.408;2023-01-26T22:09:14;101478.44;;;5.40;100.00
21100;BME280;10708;50.824;4.408;2023-01-26T22:14:18;101488.00;;;5.42;100.00
21100;BME280;10708;50.824;4.408;2023-01-26T22:19:21;101474.94;;;5.42;100.00
21100;BME280;10708;50.824;4.408;2023-01-26T22:24:24;101473.22;;;5.47;100.00
21100;BME280;10708;50.824;4.408;2023-01-26T22:29:27;101471.47;;;5.51;100.00
21100;BME280;10708;50.824;4.408;2023-01-26T22:34:29;101474.94;;;5.50;100.00
21100;BME280;10708;50.824;4.408;2023-01-26T22:39:33;101472.31;;;5.50;100.00
21100;BME280;10708;50.824;4.408;2023-01-26T22:44:36;101477.56;;;5.45;100.00
21100;BME280;10708;50.824;4.408;2023-01-26T22:49:38;101468.00;;;5.46;100.00
21100;BME280;10708;50.824;4.408;2023-01-26T22:54:42;101467.13;;;5.48;100.00
21100;BME280;10708;50.824;4.408;2023-01-26T22:59:44;101467.97;;;5.50;100.00
21100;BME280;10708;50.824;4.408;2023-01-26T23:04:46;101470.59;;;5.50;100.00
21100;BME280;10708;50.824;4.408;2023-01-26T23:09:50;101469.72;;;5.50;100.00
21100;BME280;10708;50.824;4.408;2023-01-26T23:14:52;101450.56;;;5.51;100.00
21100;BME280;10708;50.824;4.408;2023-01-26T23:19:54;101462.78;;;5.47;100.00
21100;BME280;10708;50.824;4.408;2023-01-26T23:24:58;101460.16;;;5.46;100.00
21100;BME280;10708;50.824;4.408;2023-01-26T23:30:23;101455.81;;;5.48;100.00
21100;BME280;10708;50.824;4.408;2023-01-26T23:35:25;101451.44;;;5.44;100.00
21100;BME280;10708;50.824;4.408;2023-01-26T23:40:29;101447.94;;;5.49;100.00
21100;BME280;10708;50.824;4.408;2023-01-26T23:45:32;101451.44;;;5.45;100.00
21100;BME280;10708;50.824;4.408;2023-01-26T23:50:34;101461.91;;;5.48;100.00
21100;BME280;10708;50.824;4.408;2023-01-26T23:55:40;101462.75;;;5.55;100.00
